createdAt,value
2018-06-18T07:16:09.181Z,8.17
2018-06-18T07:18:37.332Z,8.23
2018-06-18T07:21:05.491Z,5.50
2018-06-18T07:23:33.631Z,8.57
2018-06-18T07:26:01.808Z,9.13
2018-06-18T07:28:29.910Z,8.67
2018-06-18T07:30:58.083Z,9.97
2018-06-18T07:33:26.216Z,10.53
2018-06-18T07:35:54.360Z,10.93
2018-06-18T07:38:22.821Z,16.13
2018-06-18T07:40:50.993Z,10.20
2018-06-18T07:43:19.129Z,7.53
2018-06-18T07:45:47.272Z,11.63
2018-06-18T07:48:15.400Z,9.00
2018-06-18T07:50:43.321Z,6.53
2018-06-18T07:53:11.456Z,7.50
2018-06-18T07:55:39.608Z,6.77
2018-06-18T07:58:07.736Z,5.97
2018-06-18T08:00:35.868Z,8.87
2018-06-18T08:03:03.783Z,7.37
2018-06-18T08:05:31.924Z,7.00
2018-06-18T08:08:00.107Z,6.87
2018-06-18T08:10:28.205Z,6.83
2018-06-18T08:12:56.343Z,7.80
2018-06-18T08:15:24.472Z,6.70
2018-06-18T08:17:52.637Z,7.20
2018-06-18T08:20:20.771Z,5.93
2018-06-18T08:22:49.760Z,7.73
2018-06-18T08:25:17.908Z,8.10
2018-06-18T08:27:46.081Z,9.30
2018-06-18T08:30:14.204Z,7.93
2018-06-18T08:32:42.344Z,8.73
2018-06-18T08:35:10.260Z,6.73
2018-06-18T08:37:38.400Z,6.50
2018-06-18T08:40:06.612Z,6.70
2018-06-18T08:42:34.743Z,5.47
2018-06-18T08:45:02.890Z,5.30
2018-06-18T08:47:31.018Z,6.30
2018-06-18T08:50:04.717Z,6.23
2018-06-18T08:52:38.477Z,6.20
2018-06-18T08:55:12.000Z,7.13
2018-06-18T08:57:45.755Z,5.97
2018-06-18T09:01:22.964Z,5.37
2018-06-18T09:03:58.340Z,7.90
2018-06-18T09:06:26.491Z,4.67
2018-06-18T09:08:56.220Z,4.20
2018-06-18T09:11:24.409Z,6.10
2018-06-18T09:13:52.772Z,9.57
2018-06-18T09:16:20.692Z,5.83
2018-06-18T09:18:48.858Z,5.30
2018-06-18T09:21:16.999Z,6.93
2018-06-18T09:23:45.196Z,7.97
2018-06-18T09:26:13.324Z,7.03
2018-06-18T09:28:41.437Z,5.87
2018-06-18T09:31:09.617Z,4.70
2018-06-18T09:33:37.793Z,5.47
2018-06-18T09:36:05.929Z,4.00
2018-06-18T09:38:34.072Z,4.27
2018-06-18T09:41:02.318Z,6.87
2018-06-18T09:43:30.452Z,4.53
2018-06-18T09:45:58.362Z,5.17
2018-06-18T09:48:31.813Z,6.57
2018-06-18T09:51:05.568Z,6.67
2018-06-18T09:53:39.272Z,8.03
2018-06-18T09:56:12.958Z,6.40
2018-06-18T09:58:47.452Z,4.57
2018-06-18T10:01:20.889Z,7.23
2018-06-18T10:03:49.204Z,5.83
2018-06-18T10:06:17.581Z,4.70
2018-06-18T10:08:46.341Z,4.13
2018-06-18T10:11:14.484Z,4.23
2018-06-18T10:13:42.383Z,7.27
2018-06-18T10:16:10.527Z,3.77
2018-06-18T10:18:38.474Z,6.67
2018-06-18T10:21:06.784Z,6.30
2018-06-18T10:23:34.942Z,4.40
2018-06-18T10:26:02.845Z,5.60
2018-06-18T10:28:30.987Z,8.73
2018-06-18T10:30:58.909Z,6.63
2018-06-18T10:33:32.476Z,4.73
2018-06-18T10:36:06.137Z,7.63
2018-06-18T10:38:40.365Z,5.77
2018-06-18T10:41:14.039Z,6.30
2018-06-18T10:43:42.180Z,5.00
2018-06-18T10:46:10.324Z,5.80
2018-06-18T10:48:38.802Z,3.80
2018-06-18T10:51:06.964Z,4.00
2018-06-18T10:53:35.100Z,6.20
2018-06-18T10:56:03.241Z,5.17
2018-06-18T10:58:31.381Z,6.33
2018-06-18T11:01:04.668Z,6.37
2018-06-18T11:03:32.820Z,5.57
2018-06-18T11:06:06.453Z,6.47
2018-06-18T11:08:35.528Z,4.83
2018-06-18T11:11:03.666Z,4.60
2018-06-18T11:13:31.807Z,3.80
2018-06-18T11:15:59.975Z,5.27
2018-06-18T11:18:33.504Z,4.00
2018-06-18T11:21:06.881Z,5.30
2018-06-18T11:23:40.288Z,7.90
2018-06-18T11:26:13.928Z,3.93
2018-06-18T11:28:42.699Z,4.07
2018-06-18T11:31:10.877Z,4.27
2018-06-18T11:33:39.131Z,4.67
2018-06-18T11:36:07.278Z,4.37
2018-06-18T11:38:35.428Z,6.73
2018-06-18T11:41:03.602Z,4.43
2018-06-18T11:43:31.834Z,4.50
2018-06-18T11:45:59.924Z,4.97
2018-06-18T11:48:27.831Z,5.27
2018-06-18T11:50:55.984Z,7.10
2018-06-18T11:53:24.120Z,4.27
2018-06-18T11:55:52.621Z,6.13
2018-06-18T11:58:26.179Z,4.80
2018-06-18T12:02:01.643Z,4.00
2018-06-18T12:04:35.302Z,3.67
2018-06-18T12:07:09.162Z,5.30
2018-06-18T12:09:39.524Z,3.53
2018-06-18T12:12:07.648Z,5.27
2018-06-18T12:14:35.796Z,7.30
2018-06-18T12:17:04.677Z,4.70
2018-06-18T12:19:32.825Z,3.60
2018-06-18T12:22:00.723Z,5.53
2018-06-18T12:24:28.887Z,3.70
2018-06-18T12:26:57.057Z,4.93
2018-06-18T12:29:25.210Z,5.93
2018-06-18T12:31:53.112Z,6.20
2018-06-18T12:34:21.264Z,5.53
2018-06-18T12:36:49.401Z,4.33
2018-06-18T12:39:17.556Z,4.00
2018-06-18T12:41:49.416Z,3.87
2018-06-18T12:44:18.459Z,6.13
2018-06-18T12:46:53.378Z,4.23
2018-06-18T12:49:27.859Z,6.27
2018-06-18T12:52:01.505Z,5.17
2018-06-18T12:54:34.902Z,4.43
2018-06-18T12:57:05.768Z,4.43
2018-06-18T12:59:33.953Z,6.43
2018-06-18T13:02:06.780Z,4.53
2018-06-18T13:04:38.041Z,6.63
2018-06-18T13:07:06.688Z,4.07
2018-06-18T13:09:34.836Z,6.87
2018-06-18T13:12:02.973Z,4.97
2018-06-18T13:14:31.124Z,5.00
2018-06-18T13:16:59.276Z,5.50
2018-06-18T13:19:27.424Z,4.47
2018-06-18T13:21:55.617Z,5.50
2018-06-18T13:24:23.756Z,7.27
2018-06-18T13:26:51.676Z,4.03
2018-06-18T13:29:19.825Z,5.80
2018-06-18T13:31:47.963Z,3.60
2018-06-18T13:34:16.108Z,5.93
2018-06-18T13:36:44.241Z,8.10
2018-06-18T13:39:17.988Z,7.13
2018-06-18T13:41:51.344Z,3.60
2018-06-18T13:44:25.078Z,4.43
2018-06-18T13:46:58.776Z,5.70
2018-06-18T13:49:32.428Z,4.83
2018-06-18T13:52:00.568Z,4.50
2018-06-18T13:54:29.744Z,3.37
2018-06-18T13:56:57.980Z,4.20
2018-06-18T13:59:26.132Z,5.57
2018-06-18T14:01:54.264Z,6.50
2018-06-18T14:04:22.400Z,5.47
2018-06-18T14:06:50.561Z,5.57
2018-06-18T14:09:18.696Z,3.80
2018-06-18T14:11:46.841Z,6.03
2018-06-18T14:14:14.985Z,3.77
2018-06-18T14:16:43.124Z,5.67
2018-06-18T14:19:16.633Z,3.87
2018-06-18T14:21:44.789Z,5.63
2018-06-18T14:24:12.924Z,8.63
2018-06-18T14:26:40.930Z,5.07
2018-06-18T14:29:13.340Z,6.90
2018-06-18T14:31:59.872Z,5.53
2018-06-18T14:34:33.400Z,7.20
2018-06-18T14:38:10.680Z,6.13
2018-06-18T14:40:38.836Z,5.27
2018-06-18T14:43:06.993Z,5.30
2018-06-18T14:45:35.142Z,7.03
2018-06-18T14:48:03.268Z,7.83
2018-06-18T14:50:31.435Z,5.87
2018-06-18T14:52:59.564Z,4.30
2018-06-18T14:55:27.775Z,3.77
2018-06-18T14:57:57.001Z,4.90
2018-06-18T15:00:28.771Z,3.93
2018-06-18T15:02:58.364Z,8.23
2018-06-18T15:05:31.878Z,4.37
2018-06-18T15:08:00.014Z,5.67
2018-06-18T15:10:33.571Z,5.00
2018-06-18T15:13:02.000Z,4.23
2018-06-18T15:15:35.629Z,3.63
2018-06-18T15:18:03.747Z,5.30
2018-06-18T15:20:31.914Z,6.20
2018-06-18T15:23:02.117Z,5.60
2018-06-18T15:25:42.244Z,5.70
2018-06-18T15:28:10.861Z,6.63
2018-06-18T15:30:39.040Z,8.17
2018-06-18T15:33:07.196Z,7.00
2018-06-18T15:35:35.441Z,5.33
2018-06-18T15:38:03.605Z,4.53
2018-06-18T15:40:31.832Z,5.90
2018-06-18T15:43:00.076Z,6.30
2018-06-18T15:45:28.220Z,4.10
2018-06-18T15:47:56.368Z,6.50
2018-06-18T15:50:24.527Z,4.07
2018-06-18T15:52:52.520Z,4.67
2018-06-18T15:55:20.685Z,6.57
2018-06-18T15:57:48.829Z,5.97
2018-06-18T16:00:16.787Z,5.73
2018-06-18T16:02:44.945Z,4.73
2018-06-18T16:05:13.364Z,4.87
2018-06-18T16:07:42.225Z,4.23
2018-06-18T16:10:10.373Z,7.13
2018-06-18T16:12:38.623Z,6.80
2018-06-18T16:15:06.928Z,6.83
2018-06-18T16:17:35.084Z,6.53
2018-06-18T16:20:03.225Z,3.87
2018-06-18T16:22:31.142Z,4.90
2018-06-18T16:24:59.532Z,4.97
2018-06-18T16:27:27.620Z,5.73
2018-06-18T16:29:55.764Z,6.97
2018-06-18T16:32:23.928Z,8.20
2018-06-18T16:34:52.264Z,5.40
2018-06-18T16:37:20.296Z,5.40
2018-06-18T16:39:48.451Z,4.07
2018-06-18T16:42:16.599Z,5.07
2018-06-18T16:44:44.801Z,6.70
2018-06-18T16:47:12.940Z,3.90
2018-06-18T16:49:41.159Z,4.67
2018-06-18T16:52:09.322Z,4.53
2018-06-18T16:54:37.490Z,3.53
2018-06-18T16:57:05.632Z,6.27
2018-06-18T16:59:34.252Z,4.40
2018-06-18T17:02:02.387Z,5.57
2018-06-18T17:04:30.618Z,4.40
2018-06-18T17:06:58.740Z,4.23
2018-06-18T17:09:26.816Z,6.43
2018-06-18T17:11:54.959Z,7.17
2018-06-18T17:14:23.125Z,6.00
2018-06-18T17:16:51.284Z,5.63
2018-06-18T17:19:19.436Z,9.33
2018-06-18T17:21:47.597Z,4.77
2018-06-18T17:24:16.292Z,5.47
2018-06-18T17:26:44.448Z,6.10
2018-06-18T17:29:12.355Z,5.00
2018-06-18T17:31:40.582Z,6.73
2018-06-18T17:34:08.711Z,7.33
2018-06-18T17:36:36.874Z,7.93
2018-06-18T17:39:08.140Z,9.07
2018-06-18T17:41:36.286Z,9.30
2018-06-18T17:44:04.446Z,5.00
2018-06-18T17:46:32.361Z,5.27
2018-06-18T17:49:00.522Z,7.80
2018-06-18T17:51:28.664Z,7.90
2018-06-18T17:53:56.874Z,6.33
2018-06-18T17:56:24.749Z,7.00
2018-06-18T17:58:52.884Z,6.80
2018-06-18T18:01:21.078Z,7.40
2018-06-18T18:03:49.180Z,5.23
2018-06-18T18:06:17.328Z,7.37
2018-06-18T18:08:45.877Z,4.67
2018-06-18T18:11:14.064Z,4.13
2018-06-18T18:13:42.237Z,5.00
2018-06-18T18:16:10.337Z,6.70
2018-06-18T18:18:38.477Z,7.70
2018-06-18T18:21:06.459Z,8.07
2018-06-18T18:23:34.817Z,9.23
2018-06-18T18:26:02.982Z,5.33
2018-06-18T18:28:31.272Z,8.23
2018-06-18T18:30:59.425Z,7.67
2018-06-18T18:33:27.586Z,6.97
2018-06-18T18:35:55.779Z,11.13
2018-06-18T18:38:23.920Z,6.23
2018-06-18T18:40:52.100Z,6.10
2018-06-18T18:43:20.256Z,7.67
2018-06-18T18:45:48.418Z,8.87
2018-06-18T18:48:16.605Z,24.33
2018-06-18T18:50:44.760Z,10.97
2018-06-18T18:53:13.262Z,15.23
2018-06-18T18:56:01.999Z,21.97
2018-06-18T18:58:56.364Z,12.83
2018-06-18T19:01:24.529Z,10.93
2018-06-18T19:03:54.630Z,11.30
2018-06-18T19:06:22.801Z,16.67
2018-06-18T19:08:50.949Z,16.90
2018-06-18T19:11:19.115Z,19.43
2018-06-18T19:13:47.285Z,27.97
2018-06-18T19:16:16.148Z,10.90
2018-06-18T19:18:48.388Z,18.23
2018-06-18T19:21:16.551Z,11.27
2018-06-18T19:23:44.700Z,30.20
2018-06-18T19:26:12.865Z,63.23
2018-06-18T19:28:41.004Z,26.63
2018-06-18T19:31:11.659Z,26.20
2018-06-18T19:33:42.165Z,32.77
2018-06-18T19:36:10.334Z,56.90
2018-06-18T19:38:38.644Z,182.80
2018-06-18T19:41:06.581Z,128.13
2018-06-18T19:43:34.752Z,230.20
2018-06-18T19:46:03.682Z,26.53
2018-06-18T19:48:37.119Z,69.80
2018-06-18T19:51:05.336Z,120.77
2018-06-18T19:53:33.483Z,46.50
2018-06-18T19:56:01.670Z,200.20
2018-06-18T19:58:29.820Z,32.37
2018-06-18T20:01:01.104Z,9.67
2018-06-18T20:03:29.248Z,62.40
2018-06-18T20:05:57.544Z,51.03
2018-06-18T20:08:27.775Z,58.20
2018-06-18T20:10:55.941Z,49.97
2018-06-18T20:13:24.130Z,28.57
2018-06-18T20:15:52.310Z,21.17
2018-06-18T20:18:20.468Z,37.60
2018-06-18T20:20:48.616Z,35.30
2018-06-18T20:23:19.825Z,24.77
2018-06-18T20:25:50.278Z,61.33
2018-06-18T20:28:18.423Z,19.17
2018-06-18T20:30:46.339Z,9.97
2018-06-18T20:33:16.404Z,87.67
2018-06-18T20:35:50.048Z,115.07
2018-06-18T20:38:18.206Z,120.83
2018-06-18T20:40:46.357Z,97.20
2018-06-18T20:43:14.363Z,122.20
2018-06-18T20:45:42.504Z,80.87
2018-06-18T20:48:10.424Z,94.73
2018-06-18T20:50:38.591Z,90.70
2018-06-18T20:53:06.479Z,59.10
2018-06-18T20:55:34.622Z,116.63
2018-06-18T20:58:02.772Z,49.17
2018-06-18T21:00:30.679Z,66.47
2018-06-18T21:02:59.150Z,72.40
2018-06-18T21:05:27.305Z,67.03
2018-06-18T21:07:55.530Z,13.73
2018-06-18T21:10:23.372Z,16.57
2018-06-18T21:12:51.534Z,30.83
2018-06-18T21:15:19.748Z,43.67
2018-06-18T21:17:47.927Z,18.73
2018-06-18T21:20:16.109Z,23.77
2018-06-18T21:22:44.313Z,16.77
2018-06-18T21:25:12.283Z,15.67
2018-06-18T21:27:40.195Z,15.77
2018-06-18T21:30:08.580Z,11.70
2018-06-18T21:32:36.729Z,16.17
2018-06-18T21:35:04.882Z,13.90
2018-06-18T21:37:32.779Z,13.97
